Time;durP1;ratioP1;P1;durP2;ratioP2;P2;SDS_P1;SDS_P2;PMS_P1;PMS_P2;Temp;Humidity;BMP_temperature;BMP_pressure;BME280_temperature;BME280_humidity;BME280_pressure;Samples;Min_cycle;Max_cycle;Signal;HPM_P1;HPM_P2
2022/01/30 00:01:36;;;;;;;0.40;0.40;;;6.90;99.90;;;;;;4993589;28;20290;-75
2022/01/30 00:04:01;;;;;;;1.13;0.60;;;6.90;99.90;;;;;;4993224;28;20562;-75
2022/01/30 00:06:27;;;;;;;0.40;0.40;;;6.90;99.90;;;;;;4976164;28;20186;-75
2022/01/30 00:08:52;;;;;;;0.50;0.50;;;6.90;99.90;;;;;;4993624;28;20258;-75
2022/01/30 00:11:22;;;;;;;0.80;0.40;;;6.80;99.90;;;;;;4992927;28;20198;-75
2022/01/30 00:13:48;;;;;;;0.60;0.50;;;6.80;99.90;;;;;;4993764;28;20201;-75
2022/01/30 00:16:16;;;;;;;0.50;0.40;;;6.90;99.90;;;;;;4991842;28;20439;-73
2022/01/30 00:18:51;;;;;;;1.20;0.50;;;6.90;99.90;;;;;;4983888;28;20419;-75
2022/01/30 00:24:01;;;;;;;0.70;0.43;;;6.90;99.90;;;;;;4993968;28;20397;-76
2022/01/30 00:26:30;;;;;;;0.70;0.50;;;6.80;99.90;;;;;;4993243;28;20831;-75
2022/01/30 00:28:57;;;;;;;0.47;0.40;;;6.90;99.90;;;;;;4993235;28;20445;-76
2022/01/30 00:31:24;;;;;;;0.60;0.50;;;6.90;99.90;;;;;;4993080;28;20461;-75
2022/01/30 00:33:50;;;;;;;1.43;0.60;;;6.90;99.90;;;;;;4985249;28;20554;-76
2022/01/30 00:36:16;;;;;;;0.57;0.50;;;7.00;99.90;;;;;;4993296;28;20415;-75
2022/01/30 00:38:42;;;;;;;1.37;0.60;;;7.10;99.90;;;;;;4993083;28;20403;-75
2022/01/30 00:41:08;;;;;;;0.60;0.60;;;7.20;99.90;;;;;;4975499;28;20232;-76
2022/01/30 00:43:34;;;;;;;1.60;0.77;;;7.30;99.90;;;;;;4992939;28;20645;-76
2022/01/30 00:45:59;;;;;;;3.00;0.60;;;7.30;99.90;;;;;;4993387;28;20463;-75
2022/01/30 00:48:25;;;;;;;4.10;0.70;;;7.50;99.90;;;;;;4992873;28;20230;-75
2022/01/30 00:50:51;;;;;;;2.97;1.03;;;7.50;99.90;;;;;;4993081;28;20180;-75
2022/01/30 00:53:16;;;;;;;1.73;0.70;;;7.60;99.90;;;;;;4993094;28;20208;-75
2022/01/30 00:55:42;;;;;;;0.87;0.70;;;7.60;99.90;;;;;;4992716;28;20411;-75
2022/01/30 00:58:08;;;;;;;0.87;0.83;;;7.70;99.90;;;;;;4993487;28;20213;-76
2022/01/30 05:30:43;;;;;;;15.93;2.80;;;6.70;99.90;;;;;;6052740;23;20339;-73
2022/01/30 05:33:08;;;;;;;4.03;2.47;;;6.70;99.90;;;;;;4967776;28;20495;-74
2022/01/30 05:35:34;;;;;;;5.07;2.43;;;6.60;99.90;;;;;;4972349;28;20454;-73
2022/01/30 05:38:01;;;;;;;8.37;3.27;;;6.60;99.90;;;;;;4969937;28;20186;-73
2022/01/30 05:40:27;;;;;;;12.80;3.20;;;6.70;99.90;;;;;;4973072;28;20486;-71
2022/01/30 05:42:53;;;;;;;9.00;2.57;;;6.70;99.90;;;;;;4973241;28;20422;-73
2022/01/30 05:45:31;;;;;;;9.03;3.60;;;6.70;99.90;;;;;;4973146;28;20218;-74
2022/01/30 05:48:01;;;;;;;13.27;4.80;;;6.60;99.90;;;;;;4973471;28;20521;-73
2022/01/30 05:50:27;;;;;;;4.30;2.63;;;6.60;99.90;;;;;;4973314;28;20380;-71
2022/01/30 05:52:53;;;;;;;9.00;3.50;;;6.60;99.90;;;;;;4973231;28;20808;-73
2022/01/30 05:55:18;;;;;;;9.70;2.90;;;6.70;99.90;;;;;;4973402;28;20252;-73
2022/01/30 05:57:44;;;;;;;7.10;2.60;;;6.60;99.90;;;;;;4973434;28;20186;-73
2022/01/30 06:00:13;;;;;;;8.83;3.33;;;6.60;99.90;;;;;;4972333;28;20182;-75
2022/01/30 06:02:41;;;;;;;6.13;2.47;;;6.60;99.90;;;;;;4972194;28;20208;-74
2022/01/30 06:05:08;;;;;;;9.30;3.73;;;6.60;99.90;;;;;;4972063;28;20556;-74
2022/01/30 06:07:35;;;;;;;9.20;2.80;;;6.60;99.90;;;;;;4972680;28;20807;-74
2022/01/30 06:10:00;;;;;;;10.77;3.63;;;6.60;99.90;;;;;;4972148;28;20411;-74
2022/01/30 06:12:26;;;;;;;9.83;3.97;;;6.60;99.90;;;;;;4972341;28;20496;-74
2022/01/30 06:14:51;;;;;;;14.93;2.87;;;6.60;99.90;;;;;;4972068;28;20660;-74
2022/01/30 06:17:17;;;;;;;11.93;4.63;;;6.60;99.90;;;;;;4972458;28;20184;-75
2022/01/30 06:19:42;;;;;;;10.93;2.63;;;6.50;99.90;;;;;;4971071;28;20179;-74
2022/01/30 06:22:08;;;;;;;5.47;2.90;;;6.50;99.90;;;;;;4971987;28;20751;-74
2022/01/30 06:24:33;;;;;;;9.00;2.50;;;6.50;99.90;;;;;;4972066;28;20181;-74
2022/01/30 06:26:59;;;;;;;6.20;1.97;;;6.40;99.90;;;;;;4972220;28;20176;-75
2022/01/30 06:29:24;;;;;;;6.00;2.37;;;6.40;99.90;;;;;;4972214;28;20229;-74
2022/01/30 06:31:50;;;;;;;11.40;3.57;;;6.40;99.90;;;;;;4973959;28;20203;-74
2022/01/30 06:34:16;;;;;;;14.10;2.63;;;6.30;99.90;;;;;;4975696;28;20582;-74
2022/01/30 06:36:41;;;;;;;8.30;2.60;;;6.30;99.90;;;;;;4976020;28;20435;-74
2022/01/30 06:39:07;;;;;;;9.97;2.20;;;6.20;99.90;;;;;;4975774;28;20179;-74
2022/01/30 06:41:32;;;;;;;8.60;2.83;;;6.10;99.90;;;;;;4975865;28;20705;-74
2022/01/30 06:43:58;;;;;;;4.03;2.20;;;6.10;99.90;;;;;;4975661;28;20188;-74
2022/01/30 06:46:23;;;;;;;7.50;2.80;;;6.10;99.90;;;;;;4975822;28;20249;-74
2022/01/30 06:48:49;;;;;;;9.77;2.60;;;6.00;99.90;;;;;;4975766;28;20186;-73
2022/01/30 06:51:14;;;;;;;4.07;2.50;;;6.00;99.90;;;;;;4975273;28;20214;-73
2022/01/30 06:53:40;;;;;;;12.40;2.23;;;6.00;99.90;;;;;;4975253;28;20206;-73
2022/01/30 06:56:07;;;;;;;16.37;3.20;;;5.90;99.90;;;;;;4975435;28;20206;-73
2022/01/30 06:58:32;;;;;;;4.33;2.63;;;5.90;99.90;;;;;;4975463;28;20175;-72
2022/01/30 07:00:58;;;;;;;6.20;2.03;;;5.90;99.90;;;;;;4975087;28;20434;-72
2022/01/30 07:03:23;;;;;;;7.07;2.93;;;5.80;99.90;;;;;;4974990;28;20218;-73
2022/01/30 07:05:49;;;;;;;11.80;2.77;;;5.80;99.90;;;;;;4975441;28;20255;-73
2022/01/30 07:08:15;;;;;;;4.30;2.57;;;5.80;99.90;;;;;;4975121;28;20186;-73
2022/01/30 07:10:41;;;;;;;5.27;2.53;;;5.80;99.90;;;;;;4975138;28;20850;-72
2022/01/30 07:13:08;;;;;;;8.67;2.97;;;5.80;99.90;;;;;;4974860;28;20460;-73
2022/01/30 07:15:34;;;;;;;6.67;2.80;;;5.80;99.90;;;;;;4974959;28;20171;-73
2022/01/30 07:17:59;;;;;;;11.53;2.87;;;5.80;99.90;;;;;;4974912;28;20809;-72
2022/01/30 07:20:25;;;;;;;13.63;5.00;;;5.70;99.90;;;;;;4975041;28;20419;-72
2022/01/30 07:22:51;;;;;;;9.63;4.20;;;5.70;99.90;;;;;;4967748;28;20584;-72
2022/01/30 07:25:16;;;;;;;7.63;3.30;;;5.80;99.90;;;;;;4936297;29;20184;-75
2022/01/30 07:27:42;;;;;;;8.00;4.70;;;5.80;99.90;;;;;;4936594;29;20715;-75
2022/01/30 07:30:08;;;;;;;10.60;4.57;;;5.80;99.90;;;;;;4936109;29;20179;-74
2022/01/30 07:32:34;;;;;;;9.00;4.50;;;5.80;99.90;;;;;;4936385;29;20216;-73
2022/01/30 07:35:00;;;;;;;10.67;4.70;;;5.80;99.90;;;;;;4936050;29;20423;-74
2022/01/30 07:37:26;;;;;;;9.43;3.03;;;5.80;99.90;;;;;;4936658;29;20202;-74
2022/01/30 07:39:52;;;;;;;8.17;3.57;;;5.80;99.90;;;;;;4936150;29;20649;-75
2022/01/30 07:42:19;;;;;;;7.60;2.90;;;5.80;99.90;;;;;;4935781;29;20411;-75
2022/01/30 07:44:45;;;;;;;9.53;4.00;;;5.90;99.90;;;;;;4936155;29;20403;-74
2022/01/30 07:47:10;;;;;;;8.77;4.07;;;6.00;99.90;;;;;;4934847;29;20432;-74
2022/01/30 07:49:36;;;;;;;9.53;3.30;;;6.10;99.90;;;;;;4936159;29;20384;-74
2022/01/30 07:52:02;;;;;;;12.33;4.17;;;6.20;99.90;;;;;;4935936;29;20617;-74
2022/01/30 07:54:28;;;;;;;7.97;4.27;;;6.30;99.90;;;;;;4935844;29;20251;-74
2022/01/30 07:56:54;;;;;;;17.87;3.67;;;6.30;99.90;;;;;;4936034;29;20184;-74
2022/01/30 07:59:20;;;;;;;8.33;2.83;;;6.30;99.90;;;;;;4935978;29;20387;-74
2022/01/30 08:01:46;;;;;;;14.73;4.07;;;6.30;99.90;;;;;;4935885;29;20449;-74
2022/01/30 08:04:12;;;;;;;11.33;3.50;;;6.20;99.90;;;;;;4935673;29;20421;-74
2022/01/30 08:06:37;;;;;;;10.60;3.80;;;6.20;99.90;;;;;;4936041;29;20414;-74
2022/01/30 08:09:03;;;;;;;7.30;3.00;;;6.10;99.90;;;;;;4935832;29;20184;-74
2022/01/30 08:11:29;;;;;;;18.83;3.40;;;6.10;99.90;;;;;;4936106;29;20666;-74
2022/01/30 08:13:54;;;;;;;13.43;3.37;;;6.10;99.90;;;;;;4936840;29;20237;-74
2022/01/30 08:16:21;;;;;;;11.67;3.20;;;6.30;99.90;;;;;;4936521;29;20180;-74
2022/01/30 08:18:46;;;;;;;10.43;3.43;;;6.50;99.90;;;;;;4935658;29;20594;-74
2022/01/30 08:21:12;;;;;;;10.60;4.03;;;6.60;99.90;;;;;;4935369;29;20435;-74
2022/01/30 08:23:38;;;;;;;15.47;3.30;;;6.70;99.90;;;;;;4935447;29;20236;-74
2022/01/30 08:26:03;;;;;;;12.23;3.00;;;6.80;99.90;;;;;;4935420;29;20241;-74
2022/01/30 08:28:29;;;;;;;8.87;3.40;;;6.70;99.90;;;;;;4935455;29;20209;-73
2022/01/30 08:30:55;;;;;;;12.83;4.00;;;6.70;99.90;;;;;;4935110;29;20270;-73
2022/01/30 08:33:21;;;;;;;8.60;3.13;;;6.90;99.90;;;;;;4934905;29;20545;-73
2022/01/30 08:35:48;;;;;;;20.43;3.10;;;6.80;99.90;;;;;;4934515;29;20181;-72
2022/01/30 08:38:17;;;;;;;7.37;2.80;;;6.80;99.90;;;;;;4934932;29;20410;-74
2022/01/30 08:40:43;;;;;;;10.30;3.17;;;6.90;99.90;;;;;;4934588;29;20395;-73
2022/01/30 08:43:08;;;;;;;7.90;2.93;;;6.90;99.90;;;;;;4934895;29;20412;-74
2022/01/30 08:45:34;;;;;;;8.87;2.63;;;6.80;99.90;;;;;;4935117;29;20176;-74
2022/01/30 08:48:00;;;;;;;6.40;2.57;;;6.70;99.90;;;;;;4935008;29;20181;-74
2022/01/30 08:50:25;;;;;;;5.57;3.57;;;6.70;99.90;;;;;;4934837;29;20539;-74
2022/01/30 08:52:51;;;;;;;11.10;4.43;;;6.70;99.90;;;;;;4934712;29;20718;-74
2022/01/30 08:55:19;;;;;;;11.50;3.40;;;6.70;99.90;;;;;;4934094;29;21290;-73
2022/01/30 08:57:45;;;;;;;13.93;2.70;;;6.90;99.90;;;;;;4935155;29;20388;-73
2022/01/30 09:00:16;;;;;;;7.63;2.20;;;7.00;99.90;;;;;;4934585;29;20432;-73
2022/01/30 09:02:42;;;;;;;12.20;3.93;;;7.10;99.90;;;;;;4934720;29;20446;-73
2022/01/30 09:05:09;;;;;;;14.13;3.20;;;7.20;99.90;;;;;;4934544;29;20468;-74
2022/01/30 09:07:35;;;;;;;10.13;2.37;;;7.10;99.90;;;;;;4934694;29;20417;-73
2022/01/30 09:10:03;;;;;;;7.50;2.70;;;7.30;99.90;;;;;;4934575;29;20576;-72
2022/01/30 09:12:29;;;;;;;16.63;3.83;;;7.40;99.90;;;;;;4934586;29;20410;-73
2022/01/30 09:14:55;;;;;;;12.63;2.70;;;7.60;99.90;;;;;;4934432;29;20418;-74
2022/01/30 09:17:22;;;;;;;9.63;3.67;;;7.90;99.90;;;;;;4934519;29;20174;-73
2022/01/30 09:19:48;;;;;;;11.03;2.97;;;8.10;99.90;;;;;;4934522;29;20171;-74
2022/01/30 09:22:16;;;;;;;8.27;2.90;;;8.40;99.90;;;;;;4933997;29;20430;-74
2022/01/30 09:24:42;;;;;;;12.83;3.20;;;8.60;99.90;;;;;;4934329;29;20903;-73
2022/01/30 09:27:08;;;;;;;12.83;2.90;;;8.50;99.90;;;;;;4934427;29;20484;-74
2022/01/30 09:29:35;;;;;;;11.70;3.20;;;8.20;99.90;;;;;;4934367;29;20213;-73
2022/01/30 09:32:02;;;;;;;10.20;1.97;;;8.00;99.90;;;;;;4934009;29;20567;-73
2022/01/30 09:34:28;;;;;;;5.03;2.80;;;7.70;99.90;;;;;;4934114;29;20468;-73
2022/01/30 09:36:54;;;;;;;8.20;2.73;;;7.50;99.90;;;;;;4934350;29;20488;-74
2022/01/30 09:39:20;;;;;;;15.97;2.97;;;7.80;99.90;;;;;;4933020;29;20525;-74
2022/01/30 09:41:48;;;;;;;8.40;3.20;;;8.40;99.90;;;;;;4934372;29;20252;-74
2022/01/30 09:44:14;;;;;;;11.20;3.13;;;8.90;99.90;;;;;;4933843;29;20193;-74
2022/01/30 09:46:40;;;;;;;12.00;3.20;;;8.90;99.90;;;;;;4934347;29;20787;-74
2022/01/30 09:49:07;;;;;;;7.67;2.73;;;8.50;99.90;;;;;;4933948;29;20431;-73
2022/01/30 09:51:34;;;;;;;9.60;3.00;;;8.40;99.90;;;;;;4934228;29;20997;-73
2022/01/30 09:54:01;;;;;;;9.90;3.60;;;8.20;99.90;;;;;;4933792;29;20528;-74
2022/01/30 09:56:26;;;;;;;10.60;3.03;;;7.90;99.90;;;;;;4934274;29;20414;-73
2022/01/30 09:58:52;;;;;;;15.03;4.00;;;7.60;99.90;;;;;;4934268;29;20963;-74
2022/01/30 10:01:18;;;;;;;15.03;3.87;;;7.60;99.90;;;;;;4934069;29;20209;-74
2022/01/30 10:03:46;;;;;;;3.93;2.40;;;7.60;99.90;;;;;;4934112;29;20721;-73
2022/01/30 10:06:17;;;;;;;11.00;3.10;;;8.00;99.90;;;;;;4936636;29;20188;-73
2022/01/30 10:08:44;;;;;;;9.63;4.20;;;8.40;99.90;;;;;;4938241;29;20391;-74
2022/01/30 10:11:28;;;;;;;7.13;2.43;;;8.80;99.90;;;;;;4937504;29;20497;-74
2022/01/30 10:14:08;;;;;;;18.80;3.53;;;8.70;99.90;;;;;;4937605;29;20478;-74
2022/01/30 10:16:42;;;;;;;8.90;3.33;;;8.60;99.90;;;;;;4937893;29;20486;-74
2022/01/30 10:19:15;;;;;;;18.40;3.60;;;8.40;99.90;;;;;;4937757;29;21071;-74
2022/01/30 10:21:41;;;;;;;8.50;2.60;;;8.40;99.90;;;;;;4937736;29;20429;-74
2022/01/30 10:24:27;;;;;;;9.30;2.50;;;8.40;99.90;;;;;;4937425;29;20500;-74
2022/01/30 10:26:57;;;;;;;13.40;3.40;;;8.20;99.90;;;;;;4936409;29;20206;-73
2022/01/30 10:29:29;;;;;;;10.23;3.47;;;8.00;99.90;;;;;;4937414;29;20415;-73
2022/01/30 10:32:00;;;;;;;13.93;2.90;;;7.90;99.90;;;;;;4937365;29;20457;-74
2022/01/30 10:34:29;;;;;;;8.00;2.33;;;7.70;99.90;;;;;;4937222;29;20536;-74
2022/01/30 10:37:21;;;;;;;11.03;2.37;;;7.60;99.90;;;;;;4937515;29;20413;-73
2022/01/30 10:39:58;;;;;;;11.07;3.57;;;7.30;99.90;;;;;;4937595;29;20419;-73
2022/01/30 10:42:29;;;;;;;12.20;2.30;;;7.30;99.90;;;;;;4937462;29;20440;-74
2022/01/30 10:44:55;;;;;;;7.27;2.73;;;7.30;99.90;;;;;;4936931;29;20420;-74
2022/01/30 10:47:23;;;;;;;11.43;2.37;;;7.20;99.90;;;;;;4937450;29;20893;-74
2022/01/30 10:49:49;;;;;;;9.43;3.20;;;7.40;99.90;;;;;;4937087;29;20263;-74
2022/01/30 10:52:15;;;;;;;13.90;2.30;;;7.40;99.90;;;;;;4936876;29;20512;-74
2022/01/30 10:54:41;;;;;;;13.10;2.20;;;7.50;99.90;;;;;;4936930;29;20672;-74
2022/01/30 10:57:08;;;;;;;5.60;1.87;;;7.50;99.90;;;;;;4937135;29;20556;-74
2022/01/30 10:59:38;;;;;;;5.50;2.03;;;7.50;99.90;;;;;;4936892;29;20428;-74
2022/01/30 11:02:35;;;;;;;12.97;3.80;;;7.40;99.90;;;;;;4936873;29;20444;-74
2022/01/30 11:05:06;;;;;;;10.23;3.70;;;7.40;99.90;;;;;;4935624;29;20427;-74
2022/01/30 11:07:35;;;;;;;14.10;2.53;;;7.30;99.90;;;;;;4937090;29;20449;-74
2022/01/30 11:10:08;;;;;;;9.40;2.80;;;7.40;99.90;;;;;;4936643;29;20573;-74
2022/01/30 11:12:42;;;;;;;7.30;2.27;;;7.40;99.90;;;;;;4937233;29;20443;-74
2022/01/30 11:15:33;;;;;;;19.87;2.87;;;7.30;99.90;;;;;;4936703;29;20425;-73
2022/01/30 11:18:03;;;;;;;20.87;3.87;;;7.30;99.90;;;;;;4936002;29;20437;-73
2022/01/30 11:20:34;;;;;;;19.63;3.07;;;7.40;99.90;;;;;;4936621;29;20424;-70
2022/01/30 11:23:01;;;;;;;10.17;3.87;;;7.40;99.90;;;;;;4936461;29;20436;-73
2022/01/30 11:25:35;;;;;;;6.10;3.10;;;7.30;99.90;;;;;;4936541;29;20482;-73
2022/01/30 11:28:03;;;;;;;12.83;2.37;;;7.40;99.90;;;;;;4936439;29;20420;-74
2022/01/30 11:30:30;;;;;;;14.63;3.90;;;7.60;99.90;;;;;;4936349;29;20454;-71
2022/01/30 11:32:57;;;;;;;11.80;3.30;;;8.10;99.90;;;;;;4936018;29;20481;-73
2022/01/30 11:35:22;;;;;;;11.07;2.97;;;8.70;99.90;;;;;;4936653;29;20410;-73
2022/01/30 11:37:49;;;;;;;7.10;2.63;;;9.00;99.90;;;;;;4936389;29;20408;-73
2022/01/30 11:40:17;;;;;;;17.63;3.40;;;9.10;99.90;;;;;;4936150;29;20271;-73
2022/01/30 11:42:45;;;;;;;12.93;3.83;;;9.50;99.90;;;;;;4936027;29;20450;-73
2022/01/30 11:45:27;;;;;;;8.93;3.07;;;9.60;99.90;;;;;;4936108;29;20429;-74
2022/01/30 11:48:06;;;;;;;12.47;2.77;;;9.90;99.90;;;;;;4936146;29;20430;-73
2022/01/30 11:50:34;;;;;;;13.47;3.57;;;10.20;99.90;;;;;;4935909;29;20446;-74
2022/01/30 11:53:25;;;;;;;14.13;3.60;;;10.30;99.90;;;;;;4935797;29;21155;-73
2022/01/30 11:55:55;;;;;;;6.73;1.83;;;10.40;99.90;;;;;;4936045;29;20422;-74
2022/01/30 11:58:29;;;;;;;15.20;2.83;;;10.60;99.90;;;;;;4935917;29;20416;-73
2022/01/30 12:00:55;;;;;;;8.53;3.37;;;10.30;99.90;;;;;;4934149;29;20453;-74
2022/01/30 12:03:29;;;;;;;8.90;2.27;;;9.70;99.90;;;;;;4935530;29;20466;-74
2022/01/30 12:06:16;;;;;;;10.27;3.20;;;9.30;99.90;;;;;;4935864;29;20427;-73
2022/01/30 12:08:46;;;;;;;13.90;3.07;;;9.20;99.90;;;;;;4944253;29;20967;-73
2022/01/30 12:11:47;;;;;;;8.53;1.93;;;9.10;99.90;;;;;;4954502;28;20514;-74
2022/01/30 12:14:21;;;;;;;15.25;3.33;;;9.30;99.90;;;;;;4953190;28;20432;-73
2022/01/30 12:16:48;;;;;;;10.75;3.08;;;9.40;99.90;;;;;;4953917;29;20416;-73
2022/01/30 12:19:32;;;;;;;9.13;2.50;;;9.50;99.90;;;;;;4946465;29;20211;-73
2022/01/30 12:21:59;;;;;;;7.83;2.90;;;9.20;99.90;;;;;;4932825;29;20790;-74
2022/01/30 12:24:27;;;;;;;11.03;2.63;;;9.20;99.90;;;;;;4951209;29;20518;-74
2022/01/30 12:26:55;;;;;;;5.80;2.10;;;9.10;99.90;;;;;;4954305;28;20432;-74
2022/01/30 12:29:37;;;;;;;9.53;1.97;;;9.10;99.90;;;;;;4954114;28;20424;-73
2022/01/30 12:32:21;;;;;;;13.67;3.20;;;9.20;99.90;;;;;;4953923;28;20461;-73
2022/01/30 12:34:55;;;;;;;9.40;2.40;;;9.10;99.90;;;;;;4954111;28;20450;-73
2022/01/30 12:37:30;;;;;;;10.87;2.40;;;9.20;99.90;;;;;;4954129;28;20429;-73
2022/01/30 12:39:57;;;;;;;12.60;2.60;;;9.40;99.90;;;;;;4953963;28;20449;-73
2022/01/30 12:42:25;;;;;;;10.63;2.67;;;9.40;99.90;;;;;;4953928;28;20443;-73
2022/01/30 12:44:51;;;;;;;18.93;2.77;;;9.40;99.90;;;;;;4954033;28;20425;-73
2022/01/30 12:47:17;;;;;;;10.87;2.30;;;9.30;99.90;;;;;;4951908;28;20386;-72
2022/01/30 12:49:48;;;;;;;7.40;2.83;;;9.20;99.90;;;;;;4954073;28;20285;-73
2022/01/30 12:52:32;;;;;;;13.50;2.47;;;8.90;99.90;;;;;;4951796;28;20621;-74
2022/01/30 12:55:02;;;;;;;11.97;2.53;;;8.90;99.90;;;;;;4952529;29;20427;-73
2022/01/30 12:57:30;;;;;;;9.03;2.43;;;8.90;99.90;;;;;;4954296;28;20493;-74
2022/01/30 12:59:58;;;;;;;11.00;2.30;;;8.70;99.90;;;;;;4952202;28;20410;-72
2022/01/30 13:02:25;;;;;;;8.40;2.33;;;8.50;99.90;;;;;;4951979;28;20428;-73
2022/01/30 13:05:08;;;;;;;12.60;2.83;;;8.10;99.90;;;;;;4951134;28;20417;-73
2022/01/30 13:07:35;;;;;;;9.90;2.87;;;7.80;99.90;;;;;;4954200;28;20401;-73
2022/01/30 13:10:11;;;;;;;7.37;2.23;;;7.60;99.90;;;;;;4953568;28;20771;-74
2022/01/30 13:12:38;;;;;;;12.63;2.30;;;7.50;99.90;;;;;;4951471;28;20415;-73
2022/01/30 13:15:09;;;;;;;7.80;2.30;;;7.50;99.90;;;;;;4951044;28;20784;-74
2022/01/30 13:17:34;;;;;;;7.33;2.53;;;7.50;99.90;;;;;;4944176;28;20486;-73
2022/01/30 13:20:00;;;;;;;15.80;3.30;;;7.50;99.90;;;;;;4945730;29;20488;-73
2022/01/30 13:22:34;;;;;;;14.50;4.93;;;7.60;99.90;;;;;;4949581;29;20208;-73
2022/01/30 13:25:04;;;;;;;12.50;3.50;;;7.70;99.90;;;;;;4951902;28;20438;-72
2022/01/30 13:27:29;;;;;;;10.77;3.90;;;7.80;99.90;;;;;;4945603;28;20826;-74
2022/01/30 13:29:55;;;;;;;14.20;4.40;;;7.90;99.90;;;;;;4951989;29;20621;-72
2022/01/30 13:32:23;;;;;;;13.13;3.10;;;8.00;99.90;;;;;;4946856;29;20583;-73
2022/01/30 13:34:49;;;;;;;9.43;3.17;;;8.10;99.90;;;;;;4952435;28;20193;-73
2022/01/30 13:37:18;;;;;;;11.23;2.77;;;8.00;99.90;;;;;;4953588;28;20403;-73
2022/01/30 13:42:43;;;;;;;11.87;2.83;;;8.10;99.90;;;;;;4953118;28;20404;-72
2022/01/30 13:48:02;;;;;;;9.70;2.63;;;7.80;99.90;;;;;;4952377;29;20497;-72
2022/01/30 13:50:37;;;;;;;9.97;2.80;;;7.80;99.90;;;;;;4951961;29;20477;-73
2022/01/30 13:53:08;;;;;;;8.17;2.33;;;7.70;99.90;;;;;;4952988;29;20455;-72
2022/01/30 13:56:05;;;;;;;6.20;2.70;;;7.90;99.90;;;;;;4953154;28;20426;-72
2022/01/30 13:58:37;;;;;;;7.07;2.10;;;8.10;99.90;;;;;;4953372;28;20408;-72
2022/01/30 14:01:07;;;;;;;7.13;2.23;;;8.20;99.90;;;;;;4952789;29;20482;-72
2022/01/30 14:03:34;;;;;;;5.80;1.93;;;8.50;99.90;;;;;;4953076;28;20918;-72
2022/01/30 14:05:59;;;;;;;11.80;2.03;;;8.60;99.90;;;;;;4952969;28;20976;-72
2022/01/30 14:08:25;;;;;;;11.90;2.00;;;8.70;99.90;;;;;;4953151;29;20462;-72
2022/01/30 14:11:08;;;;;;;8.90;2.90;;;8.70;99.90;;;;;;4951784;29;20738;-72
2022/01/30 14:13:42;;;;;;;7.03;2.33;;;8.70;99.90;;;;;;4949783;28;20472;-71
2022/01/30 14:16:15;;;;;;;19.70;2.93;;;8.80;99.90;;;;;;4947263;29;20434;-72
2022/01/30 14:18:57;;;;;;;6.20;2.23;;;8.70;99.90;;;;;;4953307;28;20413;-71
2022/01/30 14:21:25;;;;;;;10.20;2.30;;;8.60;99.90;;;;;;4952882;28;20429;-72
2022/01/30 14:23:51;;;;;;;17.03;2.60;;;8.40;99.90;;;;;;4952348;28;20413;-73
2022/01/30 14:26:28;;;;;;;11.93;2.90;;;8.40;99.90;;;;;;4949411;28;20403;-72
2022/01/30 14:29:20;;;;;;;10.20;2.50;;;8.30;99.90;;;;;;4952929;28;20448;-74
2022/01/30 14:32:05;;;;;;;8.27;2.77;;;8.30;99.90;;;;;;4940149;28;20465;-72
2022/01/30 14:34:31;;;;;;;11.17;2.43;;;8.20;99.90;;;;;;4933332;29;20457;-72
2022/01/30 14:37:00;;;;;;;6.17;2.83;;;8.10;99.90;;;;;;4933654;29;20418;-72
2022/01/30 14:39:30;;;;;;;6.10;2.30;;;8.20;99.90;;;;;;4933575;29;20273;-72
2022/01/30 14:41:56;;;;;;;10.43;2.43;;;8.00;99.90;;;;;;4933677;29;20427;-72
2022/01/30 14:44:22;;;;;;;9.20;4.13;;;8.10;99.90;;;;;;4933557;29;20417;-72
2022/01/30 14:46:47;;;;;;;11.50;3.80;;;8.20;99.90;;;;;;4933662;29;20470;-73
2022/01/30 14:49:13;;;;;;;9.63;2.07;;;8.20;99.90;;;;;;4933440;29;20183;-73
2022/01/30 14:51:39;;;;;;;9.63;3.90;;;8.10;99.90;;;;;;4933513;29;20231;-72
2022/01/30 14:54:05;;;;;;;10.20;3.33;;;8.00;99.90;;;;;;4936791;29;20221;-72
2022/01/30 14:56:30;;;;;;;6.60;1.73;;;8.00;99.90;;;;;;4935632;29;20230;-72
2022/01/30 14:58:56;;;;;;;7.43;1.77;;;8.00;99.90;;;;;;4933976;29;20493;-72
2022/01/30 15:01:22;;;;;;;4.63;1.73;;;8.00;99.90;;;;;;4936560;29;20304;-73
2022/01/30 15:03:47;;;;;;;6.40;2.20;;;7.90;99.90;;;;;;4936874;29;20205;-73
2022/01/30 15:06:13;;;;;;;10.70;3.03;;;7.70;99.90;;;;;;4936694;29;20325;-73
2022/01/30 15:08:39;;;;;;;9.23;2.87;;;7.60;99.90;;;;;;4935672;29;20271;-73
2022/01/30 15:11:05;;;;;;;12.93;2.10;;;7.60;99.90;;;;;;4936379;29;20205;-73
2022/01/30 15:13:35;;;;;;;11.93;2.17;;;7.50;99.90;;;;;;4936479;29;20213;-73
2022/01/30 15:16:06;;;;;;;12.07;1.67;;;7.40;99.90;;;;;;4936666;29;20170;-72
2022/01/30 15:18:35;;;;;;;6.10;2.00;;;7.30;99.90;;;;;;4942423;29;20416;-72
2022/01/30 15:21:00;;;;;;;8.60;3.13;;;7.20;99.90;;;;;;4947794;28;21056;-73
2022/01/30 15:23:26;;;;;;;13.10;2.60;;;7.10;99.90;;;;;;4940037;28;20543;-71
2022/01/30 15:25:52;;;;;;;6.73;2.40;;;6.90;99.90;;;;;;4942895;29;20200;-72
2022/01/30 15:28:17;;;;;;;10.33;2.97;;;6.80;99.90;;;;;;4942840;28;20225;-74
2022/01/30 15:30:43;;;;;;;9.13;3.30;;;6.70;99.90;;;;;;4953569;28;20212;-73
2022/01/30 15:33:08;;;;;;;6.20;2.30;;;6.50;99.90;;;;;;4942359;28;20293;-71
2022/01/30 15:35:38;;;;;;;10.73;2.80;;;6.50;99.90;;;;;;4945991;28;20224;-73
2022/01/30 15:38:04;;;;;;;12.37;2.53;;;6.40;99.90;;;;;;4954697;28;20700;-72
2022/01/30 15:40:29;;;;;;;7.73;1.93;;;6.30;99.90;;;;;;4954867;28;20450;-72
2022/01/30 15:42:55;;;;;;;5.40;2.57;;;6.30;99.90;;;;;;4952947;29;20215;-72
2022/01/30 15:50:30;;;;;;;8.40;2.97;;;6.10;99.90;;;;;;4954263;28;20307;-72
2022/01/30 15:52:56;;;;;;;11.50;2.60;;;6.00;99.90;;;;;;4954547;29;20563;-72
2022/01/30 15:55:23;;;;;;;11.43;3.13;;;5.90;99.90;;;;;;4954177;28;20216;-72
2022/01/30 15:57:50;;;;;;;10.00;2.67;;;5.90;99.90;;;;;;4952221;29;20454;-72
2022/01/30 16:00:17;;;;;;;7.80;2.13;;;5.80;99.90;;;;;;4954353;28;21051;-70
2022/01/30 16:02:43;;;;;;;8.90;3.83;;;5.80;99.90;;;;;;4954119;28;20482;-73
2022/01/30 16:05:09;;;;;;;12.83;2.80;;;5.70;99.90;;;;;;4954619;28;20465;-73
2022/01/30 16:07:36;;;;;;;8.37;2.97;;;5.70;99.90;;;;;;4953162;28;20434;-73
2022/01/30 16:10:07;;;;;;;4.63;2.63;;;5.70;99.90;;;;;;4954020;28;20463;-74
2022/01/30 16:17:57;;;;;;;8.13;2.27;;;5.50;99.90;;;;;;4953489;29;20438;-73
2022/01/30 16:20:23;;;;;;;9.20;2.67;;;5.50;99.90;;;;;;4954156;28;20451;-72
2022/01/30 16:22:49;;;;;;;9.50;2.10;;;5.40;99.90;;;;;;4949615;29;20864;-72
2022/01/30 16:25:14;;;;;;;8.67;2.97;;;5.40;99.90;;;;;;4952752;29;20638;-73
2022/01/30 16:27:41;;;;;;;7.43;2.90;;;5.30;99.90;;;;;;4954260;29;20206;-71
2022/01/30 16:30:09;;;;;;;12.80;2.77;;;5.30;99.90;;;;;;4953750;28;20309;-74
2022/01/30 16:32:35;;;;;;;18.60;3.90;;;5.20;99.90;;;;;;4952220;28;20463;-73
2022/01/30 16:35:00;;;;;;;11.93;2.87;;;5.20;99.90;;;;;;4952453;28;20490;-72
2022/01/30 16:37:26;;;;;;;10.53;3.10;;;5.10;99.90;;;;;;4953680;29;20433;-73
2022/01/30 16:39:52;;;;;;;14.63;3.67;;;4.90;99.90;;;;;;4952512;29;20211;-72
2022/01/30 16:42:18;;;;;;;12.33;2.77;;;4.90;99.90;;;;;;4953641;28;20763;-73
2022/01/30 16:44:46;;;;;;;8.87;3.90;;;4.80;99.90;;;;;;4953693;28;20466;-75
2022/01/30 16:47:28;;;;;;;13.63;3.40;;;4.80;99.90;;;;;;4953601;28;20457;-76
2022/01/30 16:49:54;;;;;;;14.50;2.90;;;4.70;99.90;;;;;;4953704;28;20462;-74
2022/01/30 16:52:20;;;;;;;10.53;3.90;;;4.70;99.90;;;;;;4952373;29;20498;-76
2022/01/30 16:54:45;;;;;;;10.37;3.40;;;4.60;99.90;;;;;;4953568;28;20238;-75
2022/01/30 16:57:12;;;;;;;15.63;2.93;;;4.60;99.90;;;;;;4951249;29;20210;-76
2022/01/30 16:59:38;;;;;;;9.70;3.50;;;4.50;99.90;;;;;;4953807;28;20697;-75
2022/01/30 17:02:04;;;;;;;7.77;2.50;;;4.40;99.90;;;;;;4952790;29;20542;-75
2022/01/30 17:04:30;;;;;;;13.00;3.27;;;4.40;99.90;;;;;;4953563;28;20224;-75
2022/01/30 17:06:56;;;;;;;6.63;2.93;;;4.40;99.90;;;;;;4947838;29;20461;-75
2022/01/30 17:09:37;;;;;;;14.90;4.00;;;4.30;99.90;;;;;;4939623;28;20230;-73
2022/01/30 17:12:15;;;;;;;11.30;4.20;;;4.30;99.90;;;;;;4934200;29;20457;-75
2022/01/30 17:14:41;;;;;;;8.70;3.23;;;4.20;99.90;;;;;;4933530;29;20514;-75
2022/01/30 17:17:06;;;;;;;12.63;4.27;;;4.20;99.90;;;;;;4936805;29;21033;-75
2022/01/30 17:19:32;;;;;;;13.87;5.27;;;4.20;99.90;;;;;;4933979;29;20683;-75
2022/01/30 17:21:59;;;;;;;8.00;3.40;;;4.20;99.90;;;;;;4941461;29;20215;-75
2022/01/30 17:24:26;;;;;;;15.67;3.57;;;4.20;99.90;;;;;;4943518;28;20301;-74
2022/01/30 17:26:53;;;;;;;9.93;2.70;;;4.20;99.90;;;;;;4942838;28;20458;-74
2022/01/30 17:29:20;;;;;;;9.10;2.60;;;4.20;99.90;;;;;;4944149;28;20470;-74
2022/01/30 17:31:46;;;;;;;14.53;3.47;;;4.10;99.90;;;;;;4943818;29;20865;-74
2022/01/30 17:34:12;;;;;;;11.67;3.40;;;4.00;99.90;;;;;;4939241;28;20520;-74
2022/01/30 17:36:38;;;;;;;12.93;3.13;;;4.00;99.90;;;;;;4934500;29;20457;-74
2022/01/30 17:39:04;;;;;;;6.63;2.83;;;3.90;99.90;;;;;;4948032;28;20529;-75
2022/01/30 17:41:31;;;;;;;8.20;2.63;;;3.90;99.90;;;;;;4953272;28;20586;-75
2022/01/30 17:43:57;;;;;;;14.20;4.30;;;3.80;99.90;;;;;;4952841;28;20447;-74
2022/01/30 17:46:23;;;;;;;17.10;4.27;;;3.80;99.90;;;;;;4953376;28;20441;-74
2022/01/30 17:48:49;;;;;;;11.20;2.83;;;3.70;99.90;;;;;;4953324;28;20935;-75